Time;durP1;ratioP1;P1;durP2;ratioP2;P2;SDS_P1;SDS_P2;PMS_P1;PMS_P2;Temp;Humidity;BMP_temperature;BMP_pressure;BME280_temperature;BME280_humidity;BME280_pressure;Samples;Min_cycle;Max_cycle;Signal;HPM_P1;HPM_P2
2023/07/17 00:00:39;;;;;;;4.90;4.10;;;;;;;;;;5022113;28;20218;-68
2023/07/17 00:03:06;;;;;;;8.57;4.40;;;;;;;;;;5017776;28;20231;-68
2023/07/17 00:05:33;;;;;;;6.30;4.28;;;;;;;;;;5015964;28;20261;-69
2023/07/17 00:08:00;;;;;;;6.65;4.63;;;;;;;;;;5022762;28;20296;-68
2023/07/17 00:10:28;;;;;;;5.40;4.03;;;;;;;;;;5015858;28;20220;-69
2023/07/17 00:12:56;;;;;;;9.40;4.45;;;;;;;;;;5020199;28;20205;-69
2023/07/17 00:15:23;;;;;;;5.45;4.32;;;;;;;;;;5018465;28;20232;-68
2023/07/17 00:17:50;;;;;;;5.85;4.32;;;;;;;;;;5015708;28;20212;-68
2023/07/17 00:20:18;;;;;;;5.93;4.80;;;;;;;;;;5018355;28;20209;-68
2023/07/17 00:22:45;;;;;;;5.55;4.63;;;;;;;;;;5017582;28;20228;-68
2023/07/17 00:25:12;;;;;;;7.03;4.75;;;;;;;;;;5017003;28;20200;-68
2023/07/17 00:27:39;;;;;;;9.63;4.70;;;;;;;;;;5015054;28;20215;-68
2023/07/17 00:30:08;;;;;;;5.88;4.25;;;;;;;;;;5017216;28;20215;-68
2023/07/17 00:32:35;;;;;;;5.40;4.32;;;;;;;;;;5016323;28;20200;-68
2023/07/17 00:35:03;;;;;;;5.72;4.78;;;;;;;;;;5017689;28;20215;-68
2023/07/17 00:37:30;;;;;;;8.10;4.68;;;;;;;;;;5017916;28;20196;-69
2023/07/17 00:39:57;;;;;;;6.28;4.10;;;;;;;;;;5023837;28;20251;-68
2023/07/17 00:42:24;;;;;;;7.22;4.50;;;;;;;;;;5012092;28;20225;-68
2023/07/17 00:44:51;;;;;;;8.30;4.20;;;;;;;;;;5015524;28;20205;-68
2023/07/17 00:47:20;;;;;;;6.28;4.25;;;;;;;;;;5020013;28;20235;-68
2023/07/17 00:49:48;;;;;;;6.50;4.35;;;;;;;;;;5012605;28;20204;-69
2023/07/17 00:52:17;;;;;;;7.85;4.38;;;;;;;;;;5016357;28;20193;-68
2023/07/17 00:54:44;;;;;;;6.55;4.30;;;;;;;;;;5017333;28;20220;-69
2023/07/17 00:57:13;;;;;;;4.93;4.20;;;;;;;;;;5017528;28;20212;-68
2023/07/17 00:59:40;;;;;;;6.45;4.55;;;;;;;;;;5018950;28;20208;-68
2023/07/17 01:02:09;;;;;;;7.80;4.57;;;;;;;;;;5016511;28;20224;-68
2023/07/17 01:04:37;;;;;;;5.82;4.53;;;;;;;;;;5027335;28;20204;-68
2023/07/17 01:07:05;;;;;;;5.72;4.40;;;;;;;;;;5023038;28;20207;-68
2023/07/17 01:09:32;;;;;;;5.43;4.60;;;;;;;;;;5025858;28;20203;-68
2023/07/17 01:11:59;;;;;;;7.95;4.53;;;;;;;;;;5024832;28;20201;-68
2023/07/17 01:14:27;;;;;;;7.03;4.80;;;;;;;;;;5020402;28;20247;-68
2023/07/17 01:16:54;;;;;;;6.47;4.57;;;;;;;;;;5023881;28;20214;-68
2023/07/17 01:19:21;;;;;;;5.95;4.40;;;;;;;;;;5017771;28;20204;-69
2023/07/17 01:21:55;;;;;;;8.93;4.32;;;;;;;;;;5019214;28;20227;-68
2023/07/17 01:24:23;;;;;;;6.15;4.18;;;;;;;;;;5017948;28;20207;-69
2023/07/17 01:26:51;;;;;;;6.70;4.55;;;;;;;;;;5018657;28;20212;-68
2023/07/17 01:29:18;;;;;;;6.88;4.60;;;;;;;;;;5029018;28;20207;-68
2023/07/17 01:31:45;;;;;;;8.10;4.20;;;;;;;;;;5032433;28;20207;-68
2023/07/17 01:34:12;;;;;;;6.35;4.40;;;;;;;;;;5021703;28;20203;-68
2023/07/17 01:36:39;;;;;;;7.75;4.50;;;;;;;;;;5024434;28;20219;-68
2023/07/17 01:39:07;;;;;;;6.90;5.03;;;;;;;;;;5026318;28;20219;-68
2023/07/17 01:41:35;;;;;;;7.30;4.80;;;;;;;;;;5019339;28;20223;-69
2023/07/17 01:44:02;;;;;;;7.43;4.60;;;;;;;;;;5015327;28;20268;-68
2023/07/17 01:46:30;;;;;;;7.68;4.80;;;;;;;;;;5015211;28;20197;-68
2023/07/17 01:48:57;;;;;;;6.15;4.60;;;;;;;;;;5013487;28;20212;-68
2023/07/17 01:51:24;;;;;;;7.63;4.70;;;;;;;;;;5014037;28;20200;-68
2023/07/17 01:53:51;;;;;;;8.18;4.78;;;;;;;;;;5014517;28;20216;-68
2023/07/17 01:56:19;;;;;;;6.30;4.50;;;;;;;;;;5020575;28;20208;-68
2023/07/17 01:58:47;;;;;;;6.75;5.13;;;;;;;;;;5014572;28;20208;-68
2023/07/17 02:01:15;;;;;;;7.15;4.88;;;;;;;;;;5015800;28;20212;-68
2023/07/17 02:03:42;;;;;;;8.13;4.53;;;;;;;;;;5019038;28;20204;-68
2023/07/17 02:06:09;;;;;;;6.15;4.88;;;;;;;;;;5014274;28;20204;-68
2023/07/17 02:08:36;;;;;;;6.40;4.85;;;;;;;;;;5016525;28;20207;-68
2023/07/17 02:11:03;;;;;;;8.23;4.80;;;;;;;;;;5018119;28;20235;-68
2023/07/17 02:13:30;;;;;;;6.80;4.50;;;;;;;;;;5015307;28;20212;-68
2023/07/17 02:15:59;;;;;;;5.07;4.40;;;;;;;;;;5015100;28;20232;-68
2023/07/17 02:18:26;;;;;;;11.52;4.93;;;;;;;;;;5017160;28;20223;-68
2023/07/17 02:20:53;;;;;;;6.95;4.65;;;;;;;;;;5013490;28;20209;-68
2023/07/17 02:23:20;;;;;;;5.78;4.97;;;;;;;;;;5013344;28;20250;-69
2023/07/17 02:25:48;;;;;;;8.75;4.60;;;;;;;;;;5021825;28;20215;-68
2023/07/17 02:28:15;;;;;;;8.23;4.72;;;;;;;;;;5018309;28;20296;-68
2023/07/17 02:30:43;;;;;;;7.25;4.72;;;;;;;;;;5014522;28;20251;-68
2023/07/17 02:33:11;;;;;;;8.57;4.93;;;;;;;;;;5014420;28;20211;-68
2023/07/17 02:35:39;;;;;;;7.40;4.55;;;;;;;;;;5014003;28;20207;-68
2023/07/17 02:38:06;;;;;;;6.93;4.57;;;;;;;;;;5014080;28;20193;-68
2023/07/17 02:40:33;;;;;;;7.13;4.03;;;;;;;;;;5015233;28;20212;-69
2023/07/17 02:43:00;;;;;;;7.35;4.65;;;;;;;;;;5018681;28;20223;-68
2023/07/17 02:45:27;;;;;;;5.80;4.68;;;;;;;;;;5017432;28;20223;-68
2023/07/17 02:47:54;;;;;;;5.80;4.05;;;;;;;;;;5013628;28;20208;-68
2023/07/17 02:50:23;;;;;;;6.18;4.43;;;;;;;;;;5014163;28;20219;-68
2023/07/17 02:52:50;;;;;;;7.78;4.30;;;;;;;;;;5015174;28;20215;-68
2023/07/17 02:55:17;;;;;;;6.80;4.22;;;;;;;;;;5018328;28;20204;-68
2023/07/17 02:57:45;;;;;;;6.65;4.28;;;;;;;;;;5029850;28;20296;-68
2023/07/17 03:00:14;;;;;;;6.88;4.68;;;;;;;;;;5012685;28;20204;-68
2023/07/17 03:02:41;;;;;;;8.75;4.47;;;;;;;;;;5011430;28;20224;-69
2023/07/17 03:05:09;;;;;;;6.15;4.50;;;;;;;;;;5016631;28;20208;-68
2023/07/17 03:07:38;;;;;;;5.78;4.18;;;;;;;;;;5019143;28;20219;-68
2023/07/17 03:10:06;;;;;;;6.30;3.90;;;;;;;;;;5018635;28;20204;-68
2023/07/17 03:12:33;;;;;;;7.68;4.45;;;;;;;;;;5019249;28;20200;-68
2023/07/17 03:15:00;;;;;;;6.78;4.40;;;;;;;;;;5018476;28;20236;-68
2023/07/17 03:17:28;;;;;;;9.65;4.68;;;;;;;;;;5014268;28;20359;-68
2023/07/17 03:19:55;;;;;;;5.78;4.25;;;;;;;;;;5018306;28;20303;-68
2023/07/17 03:22:23;;;;;;;7.13;4.32;;;;;;;;;;5013372;28;20227;-68
2023/07/17 03:24:51;;;;;;;6.00;4.00;;;;;;;;;;5015295;28;20213;-68
2023/07/17 03:27:18;;;;;;;8.38;4.97;;;;;;;;;;5014923;28;20208;-68
2023/07/17 03:29:48;;;;;;;7.72;4.07;;;;;;;;;;5016599;28;20208;-68
2023/07/17 03:32:15;;;;;;;7.57;4.00;;;;;;;;;;5016463;28;20207;-68
2023/07/17 03:34:42;;;;;;;5.93;4.07;;;;;;;;;;5013351;28;20197;-68
2023/07/17 03:37:10;;;;;;;7.95;4.30;;;;;;;;;;5018592;28;20204;-68
2023/07/17 03:39:37;;;;;;;4.63;3.97;;;;;;;;;;5011978;28;20208;-68
2023/07/17 03:42:10;;;;;;;7.80;3.88;;;;;;;;;;5013417;28;20213;-68
2023/07/17 03:44:37;;;;;;;5.38;4.07;;;;;;;;;;5017105;28;20251;-68
2023/07/17 03:47:04;;;;;;;7.53;4.30;;;;;;;;;;5013211;28;20212;-68
2023/07/17 03:49:31;;;;;;;8.85;4.50;;;;;;;;;;5013508;28;20211;-66
2023/07/17 03:51:59;;;;;;;10.27;4.78;;;;;;;;;;5013461;28;20208;-68
2023/07/17 03:54:26;;;;;;;6.35;4.20;;;;;;;;;;5016481;28;20201;-68
2023/07/17 03:56:53;;;;;;;6.43;4.30;;;;;;;;;;5014196;28;20223;-68
2023/07/17 03:59:23;;;;;;;8.93;4.10;;;;;;;;;;5023542;28;20200;-67
2023/07/17 04:01:51;;;;;;;8.57;4.57;;;;;;;;;;5018618;28;20211;-67
2023/07/17 04:04:18;;;;;;;4.97;3.65;;;;;;;;;;5022313;28;20243;-67
2023/07/17 04:06:46;;;;;;;5.70;4.18;;;;;;;;;;5016982;28;20222;-68
2023/07/17 04:09:15;;;;;;;10.40;4.72;;;;;;;;;;5016333;28;20220;-67
2023/07/17 04:11:45;;;;;;;6.57;4.30;;;;;;;;;;5017884;28;20267;-67
2023/07/17 04:14:13;;;;;;;5.95;3.88;;;;;;;;;;5015951;28;20309;-67
2023/07/17 04:16:41;;;;;;;6.72;4.15;;;;;;;;;;5013576;28;20205;-68
2023/07/17 04:19:08;;;;;;;6.15;4.47;;;;;;;;;;5014650;28;20205;-67
2023/07/17 04:21:36;;;;;;;7.15;4.28;;;;;;;;;;5019735;28;20196;-67
2023/07/17 04:24:03;;;;;;;9.75;4.47;;;;;;;;;;5025309;28;20290;-67
2023/07/17 04:26:30;;;;;;;8.27;4.47;;;;;;;;;;5019758;28;20201;-68
2023/07/17 04:28:57;;;;;;;6.90;4.32;;;;;;;;;;5019502;28;20200;-67
2023/07/17 04:31:24;;;;;;;10.68;4.90;;;;;;;;;;5018776;28;20204;-68
2023/07/17 04:33:53;;;;;;;6.88;4.38;;;;;;;;;;5015376;28;20209;-68
2023/07/17 04:36:20;;;;;;;6.25;4.35;;;;;;;;;;5019323;28;20208;-68
2023/07/17 04:38:48;;;;;;;5.50;4.93;;;;;;;;;;5012007;28;20307;-68
2023/07/17 04:41:16;;;;;;;7.28;4.85;;;;;;;;;;5014202;28;20215;-67
2023/07/17 04:43:43;;;;;;;7.72;5.00;;;;;;;;;;5014302;28;20228;-68
2023/07/17 04:46:10;;;;;;;5.88;4.40;;;;;;;;;;5014967;28;20205;-68
2023/07/17 04:48:37;;;;;;;8.15;4.30;;;;;;;;;;5018147;28;20229;-68
2023/07/17 04:51:05;;;;;;;7.10;4.63;;;;;;;;;;5015686;28;20204;-68
2023/07/17 04:53:33;;;;;;;6.47;4.20;;;;;;;;;;5021027;28;20207;-68
2023/07/17 04:56:01;;;;;;;7.60;4.82;;;;;;;;;;5018390;28;20205;-68
2023/07/17 04:58:32;;;;;;;6.35;4.20;;;;;;;;;;5023489;28;20203;-68
2023/07/17 05:00:59;;;;;;;8.70;4.20;;;;;;;;;;5017329;28;20283;-68
2023/07/17 05:03:27;;;;;;;6.43;3.92;;;;;;;;;;5017945;28;20231;-68
2023/07/17 05:05:54;;;;;;;5.20;3.72;;;;;;;;;;5018372;28;20208;-68
2023/07/17 05:08:23;;;;;;;5.95;4.28;;;;;;;;;;5017078;28;20224;-69
2023/07/17 05:10:54;;;;;;;4.97;3.75;;;;;;;;;;5022291;28;20216;-68
2023/07/17 05:13:21;;;;;;;7.25;3.67;;;;;;;;;;5017457;28;20218;-68
2023/07/17 05:15:49;;;;;;;7.82;4.28;;;;;;;;;;5026101;28;20262;-68
2023/07/17 05:18:16;;;;;;;6.78;4.22;;;;;;;;;;5012098;28;20200;-69
2023/07/17 05:20:44;;;;;;;6.55;4.00;;;;;;;;;;5016240;28;20204;-68
2023/07/17 05:23:11;;;;;;;5.07;3.78;;;;;;;;;;5020644;28;20227;-69
2023/07/17 05:25:40;;;;;;;7.38;4.10;;;;;;;;;;5019231;28;20212;-69
2023/07/17 05:28:07;;;;;;;7.82;4.18;;;;;;;;;;5017564;28;20215;-68
2023/07/17 05:30:35;;;;;;;6.43;4.35;;;;;;;;;;5010721;28;20207;-68
2023/07/17 05:33:02;;;;;;;8.65;4.50;;;;;;;;;;5018932;28;20204;-68
2023/07/17 05:35:31;;;;;;;6.75;3.97;;;;;;;;;;5016673;28;20208;-68
2023/07/17 05:37:58;;;;;;;8.48;4.30;;;;;;;;;;5010145;28;20235;-68
2023/07/17 05:40:25;;;;;;;6.70;4.00;;;;;;;;;;5019841;28;20223;-69
2023/07/17 05:42:54;;;;;;;7.82;3.88;;;;;;;;;;5032291;28;20230;-69
2023/07/17 05:45:21;;;;;;;6.55;4.00;;;;;;;;;;5017389;28;20208;-68
2023/07/17 05:47:48;;;;;;;7.78;4.15;;;;;;;;;;5020153;28;20216;-71
2023/07/17 05:50:15;;;;;;;10.05;4.38;;;;;;;;;;5015038;28;20227;-69
2023/07/17 05:52:43;;;;;;;4.53;3.47;;;;;;;;;;5017726;28;20204;-69
2023/07/17 05:55:10;;;;;;;5.60;3.70;;;;;;;;;;5021657;28;20211;-69
2023/07/17 05:57:37;;;;;;;5.60;3.72;;;;;;;;;;5020368;28;20208;-69
2023/07/17 06:00:08;;;;;;;8.50;3.75;;;;;;;;;;5019882;28;20210;-70
2023/07/17 06:02:35;;;;;;;4.50;3.22;;;;;;;;;;5018337;28;20268;-69
2023/07/17 06:05:02;;;;;;;6.45;3.50;;;;;;;;;;5018845;28;20204;-70
2023/07/17 06:07:30;;;;;;;7.75;3.63;;;;;;;;;;5020784;28;20247;-69
2023/07/17 06:09:58;;;;;;;5.70;3.50;;;;;;;;;;5018655;28;20209;-69
2023/07/17 06:12:25;;;;;;;7.10;3.72;;;;;;;;;;5014229;28;20215;-70
2023/07/17 06:14:52;;;;;;;4.80;3.30;;;;;;;;;;5016727;28;20228;-70
2023/07/17 06:17:22;;;;;;;5.63;3.67;;;;;;;;;;5011664;28;20219;-70
2023/07/17 06:19:49;;;;;;;6.38;4.00;;;;;;;;;;5008860;28;20314;-70
2023/07/17 06:22:16;;;;;;;7.65;4.22;;;;;;;;;;5015087;28;20206;-70
2023/07/17 06:24:43;;;;;;;7.80;3.55;;;;;;;;;;5021283;28;20220;-70
2023/07/17 06:27:10;;;;;;;7.75;3.40;;;;;;;;;;5021756;28;20201;-70
2023/07/17 06:29:38;;;;;;;4.50;3.00;;;;;;;;;;5023759;28;20319;-70
2023/07/17 06:32:05;;;;;;;3.45;3.03;;;;;;;;;;5025716;28;20263;-70
2023/07/17 06:34:34;;;;;;;4.30;2.72;;;;;;;;;;5023937;28;20202;-71
2023/07/17 06:37:03;;;;;;;6.70;2.80;;;;;;;;;;5017220;28;20211;-71
2023/07/17 06:39:31;;;;;;;6.20;3.33;;;;;;;;;;5025969;28;20204;-70
2023/07/17 06:41:58;;;;;;;4.97;3.47;;;;;;;;;;5026179;28;20252;-70
2023/07/17 06:44:25;;;;;;;6.18;3.55;;;;;;;;;;5021468;28;20239;-71
2023/07/17 06:46:52;;;;;;;5.93;3.33;;;;;;;;;;5025629;28;20204;-71
2023/07/17 06:49:20;;;;;;;4.05;3.15;;;;;;;;;;5020404;28;20205;-71
2023/07/17 06:51:48;;;;;;;6.22;2.88;;;;;;;;;;5025559;28;20203;-70
2023/07/17 06:54:15;;;;;;;5.18;3.03;;;;;;;;;;5024441;28;20362;-70
2023/07/17 06:56:43;;;;;;;3.03;2.70;;;;;;;;;;5027759;28;20215;-70
2023/07/17 06:59:10;;;;;;;5.38;2.65;;;;;;;;;;5019920;28;20213;-69
2023/07/17 07:01:37;;;;;;;3.45;2.60;;;;;;;;;;5025506;28;20201;-69
2023/07/17 07:04:05;;;;;;;4.75;2.72;;;;;;;;;;5020817;28;20282;-70
2023/07/17 07:06:32;;;;;;;5.22;2.63;;;;;;;;;;5020556;28;20209;-69
2023/07/17 07:09:01;;;;;;;5.10;2.70;;;;;;;;;;5018325;28;20211;-70
2023/07/17 07:11:28;;;;;;;3.47;2.60;;;;;;;;;;5019253;28;20253;-70
2023/07/17 07:13:56;;;;;;;4.32;2.60;;;;;;;;;;5018323;28;20196;-70
2023/07/17 07:16:23;;;;;;;3.85;2.40;;;;;;;;;;5017602;28;20248;-71
2023/07/17 07:18:50;;;;;;;5.35;2.20;;;;;;;;;;5014654;28;20211;-70
2023/07/17 07:21:17;;;;;;;4.60;2.55;;;;;;;;;;5015221;28;20283;-71
2023/07/17 07:23:45;;;;;;;2.80;2.33;;;;;;;;;;5013411;28;20224;-70
2023/07/17 07:26:13;;;;;;;3.88;2.30;;;;;;;;;;5007735;28;20204;-70
2023/07/17 07:28:40;;;;;;;3.63;2.30;;;;;;;;;;5008750;28;20211;-71
2023/07/17 07:31:08;;;;;;;6.78;2.40;;;;;;;;;;5004627;28;20216;-71
2023/07/17 07:33:36;;;;;;;3.10;2.30;;;;;;;;;;5013084;28;20208;-71
2023/07/17 07:36:03;;;;;;;9.90;2.90;;;;;;;;;;5017315;28;20325;-71
2023/07/17 07:38:30;;;;;;;5.05;2.53;;;;;;;;;;5019340;28;20203;-71
2023/07/17 07:40:58;;;;;;;5.07;2.72;;;;;;;;;;5018468;28;20211;-71
2023/07/17 07:43:26;;;;;;;5.18;2.33;;;;;;;;;;5020480;28;20228;-71
2023/07/17 07:45:54;;;;;;;3.60;2.58;;;;;;;;;;5018311;28;20205;-70
2023/07/17 07:48:22;;;;;;;5.03;2.65;;;;;;;;;;5009812;28;20212;-71
2023/07/17 07:50:49;;;;;;;3.78;2.85;;;;;;;;;;5015804;28;20211;-70
2023/07/17 07:53:16;;;;;;;4.35;2.78;;;;;;;;;;5023306;28;20200;-71
2023/07/17 07:55:44;;;;;;;3.70;2.53;;;;;;;;;;5021890;28;20219;-70
2023/07/17 07:58:11;;;;;;;3.58;2.60;;;;;;;;;;5023474;28;20217;-70
2023/07/17 08:00:40;;;;;;;3.92;2.67;;;;;;;;;;5027833;28;20216;-70
2023/07/17 08:03:07;;;;;;;3.92;2.90;;;;;;;;;;5028217;28;20242;-71
2023/07/17 08:05:34;;;;;;;3.88;2.65;;;;;;;;;;5026553;28;20231;-70
2023/07/17 08:08:01;;;;;;;3.58;2.60;;;;;;;;;;5021833;28;20204;-70
2023/07/17 08:10:29;;;;;;;4.53;2.42;;;;;;;;;;5016733;28;20201;-70
2023/07/17 08:12:57;;;;;;;4.95;2.70;;;;;;;;;;5015789;28;20211;-71
2023/07/17 08:15:24;;;;;;;5.00;2.42;;;;;;;;;;5015390;28;20235;-70
2023/07/17 08:17:53;;;;;;;2.80;2.50;;;;;;;;;;5013729;28;20204;-71
2023/07/17 08:20:20;;;;;;;6.10;2.95;;;;;;;;;;5016096;28;20216;-71
2023/07/17 08:22:48;;;;;;;3.40;2.60;;;;;;;;;;5019928;28;20274;-71
2023/07/17 08:25:15;;;;;;;5.03;2.97;;;;;;;;;;5014909;28;20224;-71
2023/07/17 08:27:43;;;;;;;4.45;2.65;;;;;;;;;;5014748;28;20204;-72
2023/07/17 08:30:10;;;;;;;3.33;2.67;;;;;;;;;;5014577;28;20253;-70
2023/07/17 08:32:38;;;;;;;4.45;2.63;;;;;;;;;;5017261;28;20215;-69
2023/07/17 08:35:07;;;;;;;6.05;2.67;;;;;;;;;;5014482;28;20196;-70
2023/07/17 08:37:35;;;;;;;4.07;2.78;;;;;;;;;;5018878;28;20210;-71
2023/07/17 08:40:02;;;;;;;3.63;2.72;;;;;;;;;;5015896;28;20264;-71
2023/07/17 08:42:30;;;;;;;10.90;3.40;;;;;;;;;;5029426;28;20233;-71
2023/07/17 08:44:58;;;;;;;3.78;2.70;;;;;;;;;;5028622;28;20232;-71
2023/07/17 08:47:25;;;;;;;4.65;2.70;;;;;;;;;;5025267;28;20205;-71
2023/07/17 08:49:53;;;;;;;3.47;2.38;;;;;;;;;;5018876;28;20215;-70
2023/07/17 08:52:22;;;;;;;4.32;2.70;;;;;;;;;;5030374;28;20222;-71
2023/07/17 08:54:49;;;;;;;3.78;2.70;;;;;;;;;;5029590;28;20257;-70
2023/07/17 08:57:16;;;;;;;4.75;2.67;;;;;;;;;;5021067;28;20207;-71
2023/07/17 08:59:43;;;;;;;4.00;2.38;;;;;;;;;;5026427;28;20204;-70
2023/07/17 09:02:10;;;;;;;4.93;2.63;;;;;;;;;;5021045;28;20207;-70
2023/07/17 09:04:38;;;;;;;3.35;2.53;;;;;;;;;;5022274;28;20225;-70
2023/07/17 09:07:05;;;;;;;3.95;2.30;;;;;;;;;;5028476;28;20204;-70
2023/07/17 09:09:33;;;;;;;4.30;2.60;;;;;;;;;;5023721;28;20208;-70
2023/07/17 09:12:08;;;;;;;4.00;2.70;;;;;;;;;;5022224;28;20200;-69
2023/07/17 09:14:35;;;;;;;5.78;2.60;;;;;;;;;;5024512;28;20292;-72
2023/07/17 09:17:04;;;;;;;5.90;2.92;;;;;;;;;;5026817;28;20205;-70
2023/07/17 09:19:31;;;;;;;7.63;2.72;;;;;;;;;;5026193;28;20259;-70
2023/07/17 09:22:03;;;;;;;3.67;2.88;;;;;;;;;;5023034;28;20265;-70
2023/07/17 09:24:30;;;;;;;4.75;2.60;;;;;;;;;;5029262;28;20260;-70
2023/07/17 09:26:59;;;;;;;4.55;2.50;;;;;;;;;;5026102;28;20209;-70
2023/07/17 09:29:26;;;;;;;4.53;2.70;;;;;;;;;;5023894;28;20211;-71
2023/07/17 09:31:54;;;;;;;3.42;2.30;;;;;;;;;;5019339;28;20200;-71
2023/07/17 09:34:21;;;;;;;3.53;2.47;;;;;;;;;;5026691;28;20200;-71
2023/07/17 09:36:51;;;;;;;3.50;2.40;;;;;;;;;;5024937;28;20212;-71
2023/07/17 09:39:18;;;;;;;3.67;2.58;;;;;;;;;;5014361;28;20219;-71
2023/07/17 09:41:46;;;;;;;5.50;2.78;;;;;;;;;;5016679;28;20262;-71
2023/07/17 09:44:18;;;;;;;4.65;2.58;;;;;;;;;;5009807;28;20223;-70
2023/07/17 09:46:46;;;;;;;4.95;2.45;;;;;;;;;;5011124;28;20324;-71
2023/07/17 09:49:14;;;;;;;5.13;2.60;;;;;;;;;;5033294;28;20209;-70
2023/07/17 09:51:41;;;;;;;3.65;2.40;;;;;;;;;;5020691;28;20207;-70
2023/07/17 09:54:09;;;;;;;4.65;2.70;;;;;;;;;;5028102;28;20199;-70
2023/07/17 09:56:36;;;;;;;3.00;2.40;;;;;;;;;;5024805;28;20204;-71
2023/07/17 09:59:12;;;;;;;3.70;2.47;;;;;;;;;;5017426;28;20213;-71
2023/07/17 10:01:42;;;;;;;5.45;2.40;;;;;;;;;;5024822;28;20213;-72
2023/07/17 10:04:10;;;;;;;4.65;2.45;;;;;;;;;;5019259;28;20205;-71
2023/07/17 10:06:39;;;;;;;3.13;2.47;;;;;;;;;;5022316;28;20208;-71
2023/07/17 10:09:09;;;;;;;4.55;2.22;;;;;;;;;;5026174;28;20304;-71
2023/07/17 10:11:37;;;;;;;3.70;2.45;;;;;;;;;;5024036;28;20200;-71
2023/07/17 10:14:04;;;;;;;3.13;2.38;;;;;;;;;;5027219;28;20208;-71
2023/07/17 10:16:32;;;;;;;3.75;2.20;;;;;;;;;;5022590;28;20207;-71
2023/07/17 10:19:02;;;;;;;3.97;2.13;;;;;;;;;;5021713;28;20236;-71
2023/07/17 10:21:29;;;;;;;4.30;2.42;;;;;;;;;;5026086;28;20206;-71
2023/07/17 10:24:01;;;;;;;3.35;2.15;;;;;;;;;;5023260;28;20212;-72
2023/07/17 10:26:29;;;;;;;2.58;2.10;;;;;;;;;;5021487;28;20204;-71
2023/07/17 10:28:57;;;;;;;2.92;2.13;;;;;;;;;;5023189;28;20262;-72
2023/07/17 10:31:25;;;;;;;4.03;2.20;;;;;;;;;;5019040;28;20204;-72
2023/07/17 10:33:53;;;;;;;5.10;2.40;;;;;;;;;;5029026;28;20240;-71
2023/07/17 10:36:37;;;;;;;3.03;2.20;;;;;;;;;;5022202;28;20204;-72
2023/07/17 10:39:05;;;;;;;4.00;2.53;;;;;;;;;;5022565;28;20207;-71
2023/07/17 10:41:33;;;;;;;4.43;2.33;;;;;;;;;;5029634;28;20227;-71
2023/07/17 10:44:01;;;;;;;4.50;2.45;;;;;;;;;;5022771;28;20212;-72
2023/07/17 10:46:29;;;;;;;3.83;2.03;;;;;;;;;;5027939;28;20230;-72
2023/07/17 10:48:57;;;;;;;4.75;2.67;;;;;;;;;;5019693;28;20207;-71
2023/07/17 10:51:29;;;;;;;5.55;2.42;;;;;;;;;;5017402;28;20209;-71
2023/07/17 10:53:57;;;;;;;3.00;2.30;;;;;;;;;;5017106;28;20208;-71
2023/07/17 10:56:25;;;;;;;3.90;2.30;;;;;;;;;;5023940;28;20200;-72
2023/07/17 10:58:52;;;;;;;4.72;2.50;;;;;;;;;;5017554;28;20207;-72
2023/07/17 11:01:19;;;;;;;4.25;2.30;;;;;;;;;;5014630;28;20208;-70
2023/07/17 11:03:47;;;;;;;5.28;2.50;;;;;;;;;;5013343;28;20259;-72
2023/07/17 11:06:17;;;;;;;4.70;2.60;;;;;;;;;;5022268;28;20223;-65
2023/07/17 11:08:48;;;;;;;3.80;2.53;;;;;;;;;;5014497;28;20277;-71
2023/07/17 11:11:15;;;;;;;4.00;2.55;;;;;;;;;;5020453;28;20200;-71
2023/07/17 11:13:45;;;;;;;6.30;2.25;;;;;;;;;;5018230;28;20196;-72
2023/07/17 11:16:12;;;;;;;2.78;2.22;;;;;;;;;;5017349;28;20243;-73
2023/07/17 11:18:44;;;;;;;2.85;2.30;;;;;;;;;;5020267;28;20210;-73
2023/07/17 11:21:12;;;;;;;2.85;2.35;;;;;;;;;;5021343;28;20201;-72
2023/07/17 11:23:46;;;;;;;5.30;2.38;;;;;;;;;;5018151;28;20287;-72
2023/07/17 11:26:13;;;;;;;3.22;2.22;;;;;;;;;;5022874;28;20224;-72
2023/07/17 11:28:41;;;;;;;3.88;2.45;;;;;;;;;;5025154;28;20204;-72
2023/07/17 11:31:18;;;;;;;2.92;1.80;;;;;;;;;;5020157;28;20205;-71
2023/07/17 11:33:50;;;;;;;3.42;1.95;;;;;;;;;;5019167;28;20205;-71
2023/07/17 11:36:17;;;;;;;5.00;2.20;;;;;;;;;;5020734;28;20197;-71
2023/07/17 11:38:45;;;;;;;2.33;2.10;;;;;;;;;;5021779;28;20268;-69
2023/07/17 11:41:13;;;;;;;2.40;2.20;;;;;;;;;;5016613;28;20204;-69
2023/07/17 11:43:40;;;;;;;2.72;1.98;;;;;;;;;;5020382;28;20208;-71
2023/07/17 11:46:08;;;;;;;4.25;2.08;;;;;;;;;;5020611;28;20239;-71
2023/07/17 11:48:36;;;;;;;4.07;2.20;;;;;;;;;;5023721;28;20211;-71
2023/07/17 11:51:04;;;;;;;3.15;2.10;;;;;;;;;;5016223;28;20231;-71
2023/07/17 11:53:31;;;;;;;5.07;2.45;;;;;;;;;;5018680;28;20228;-72
2023/07/17 11:56:00;;;;;;;2.60;1.95;;;;;;;;;;5018041;28;20192;-72
2023/07/17 11:58:29;;;;;;;2.45;1.95;;;;;;;;;;5022198;28;20291;-71
2023/07/17 12:00:56;;;;;;;3.28;2.08;;;;;;;;;;5018845;28;20210;-72
2023/07/17 12:03:23;;;;;;;1.85;1.70;;;;;;;;;;5018602;28;20200;-71
2023/07/17 12:05:51;;;;;;;2.65;1.83;;;;;;;;;;5013937;28;20225;-71
2023/07/17 12:08:18;;;;;;;4.68;1.90;;;;;;;;;;5018692;28;20200;-73
2023/07/17 12:10:46;;;;;;;4.10;1.98;;;;;;;;;;5016815;28;20212;-71
2023/07/17 12:13:14;;;;;;;5.32;1.90;;;;;;;;;;5016675;28;20205;-72
2023/07/17 12:15:41;;;;;;;4.53;2.08;;;;;;;;;;5000950;28;20238;-71
2023/07/17 12:18:08;;;;;;;2.50;1.80;;;;;;;;;;5003416;28;20201;-73
2023/07/17 12:20:36;;;;;;;4.63;1.98;;;;;;;;;;5011476;28;20213;-72
2023/07/17 12:23:03;;;;;;;2.00;1.50;;;;;;;;;;5024297;28;20203;-71
2023/07/17 12:25:31;;;;;;;1.75;1.40;;;;;;;;;;5016320;28;20221;-70
2023/07/17 12:27:59;;;;;;;2.63;1.60;;;;;;;;;;5018903;28;20200;-72
2023/07/17 12:30:29;;;;;;;1.98;1.48;;;;;;;;;;5019126;28;20200;-71
2023/07/17 12:32:57;;;;;;;2.80;1.60;;;;;;;;;;5021720;28;20212;-71
2023/07/17 12:35:24;;;;;;;3.42;1.80;;;;;;;;;;5019417;28;20243;-71
2023/07/17 12:37:51;;;;;;;2.08;1.70;;;;;;;;;;5014892;28;20216;-71
2023/07/17 12:40:18;;;;;;;2.45;1.50;;;;;;;;;;5021984;28;20201;-71
2023/07/17 12:42:46;;;;;;;3.22;1.90;;;;;;;;;;5020990;28;20213;-69
2023/07/17 12:45:13;;;;;;;2.20;1.55;;;;;;;;;;5027251;28;20215;-71
2023/07/17 12:47:42;;;;;;;2.42;1.85;;;;;;;;;;5022059;28;20212;-71
2023/07/17 12:50:10;;;;;;;2.08;1.80;;;;;;;;;;5024411;28;20211;-71
2023/07/17 12:52:37;;;;;;;2.00;1.60;;;;;;;;;;5020218;28;20215;-71
2023/07/17 12:55:04;;;;;;;4.57;1.70;;;;;;;;;;5019008;28;20205;-71
2023/07/17 12:57:32;;;;;;;2.47;1.60;;;;;;;;;;5022755;28;20209;-71
2023/07/17 12:59:59;;;;;;;2.17;1.70;;;;;;;;;;5020324;28;20211;-71
2023/07/17 13:02:26;;;;;;;1.70;1.55;;;;;;;;;;5025881;28;20204;-72
2023/07/17 13:04:55;;;;;;;2.50;1.55;;;;;;;;;;5018850;28;20205;-71
2023/07/17 13:07:22;;;;;;;3.25;1.75;;;;;;;;;;5024532;28;20211;-71
2023/07/17 13:09:49;;;;;;;1.65;1.50;;;;;;;;;;5020521;28;20201;-72
2023/07/17 13:12:16;;;;;;;4.07;1.77;;;;;;;;;;5021224;28;20208;-71
2023/07/17 13:14:43;;;;;;;1.85;1.55;;;;;;;;;;5030891;28;20238;-72
2023/07/17 13:17:10;;;;;;;2.28;1.55;;;;;;;;;;5025562;28;20275;-71
2023/07/17 13:19:38;;;;;;;3.00;1.63;;;;;;;;;;5014289;28;20204;-70
2023/07/17 13:22:07;;;;;;;2.25;1.70;;;;;;;;;;5012922;28;20205;-70
2023/07/17 13:24:34;;;;;;;2.50;1.50;;;;;;;;;;5016630;28;20207;-72
2023/07/17 13:27:01;;;;;;;3.42;1.73;;;;;;;;;;5016664;28;20235;-71
2023/07/17 13:29:28;;;;;;;1.88;1.77;;;;;;;;;;5022261;28;20209;-72
2023/07/17 13:31:59;;;;;;;3.03;1.70;;;;;;;;;;5019311;28;20200;-72
2023/07/17 13:34:26;;;;;;;5.40;1.70;;;;;;;;;;5022692;28;20227;-69
2023/07/17 13:36:53;;;;;;;2.00;1.60;;;;;;;;;;5019711;28;20208;-70
2023/07/17 13:39:21;;;;;;;1.55;1.45;;;;;;;;;;5026884;28;20219;-72
2023/07/17 13:41:49;;;;;;;4.15;1.73;;;;;;;;;;5018669;28;20216;-71
2023/07/17 13:44:17;;;;;;;1.65;1.40;;;;;;;;;;5020574;28;20291;-71
2023/07/17 13:46:44;;;;;;;3.00;1.70;;;;;;;;;;5019920;28;20221;-72
2023/07/17 13:49:12;;;;;;;2.45;1.85;;;;;;;;;;5023095;28;20215;-71
2023/07/17 13:51:39;;;;;;;1.60;1.50;;;;;;;;;;5020567;28;20212;-71
2023/07/17 13:54:07;;;;;;;4.38;1.50;;;;;;;;;;5015468;28;20208;-71
2023/07/17 13:56:36;;;;;;;1.73;1.60;;;;;;;;;;5017751;28;20208;-72
2023/07/17 13:59:05;;;;;;;2.13;1.60;;;;;;;;;;5016002;28;20203;-72
2023/07/17 14:01:32;;;;;;;3.40;1.63;;;;;;;;;;5014770;28;20200;-73
2023/07/17 14:03:59;;;;;;;2.80;1.50;;;;;;;;;;5022123;28;20204;-73
2023/07/17 14:06:26;;;;;;;2.55;1.40;;;;;;;;;;5017582;28;20231;-73
2023/07/17 14:08:53;;;;;;;2.10;1.77;;;;;;;;;;5020022;28;20215;-70
2023/07/17 14:11:21;;;;;;;2.83;1.63;;;;;;;;;;5010145;28;20212;-71
2023/07/17 14:13:49;;;;;;;3.90;1.60;;;;;;;;;;5024646;28;20215;-73
2023/07/17 14:16:16;;;;;;;2.75;1.70;;;;;;;;;;5018440;28;20269;-69
2023/07/17 14:18:43;;;;;;;2.85;1.80;;;;;;;;;;5020423;28;20211;-72
2023/07/17 14:21:10;;;;;;;2.28;1.90;;;;;;;;;;5024184;28;20211;-73
2023/07/17 14:23:38;;;;;;;3.15;1.50;;;;;;;;;;5024627;28;20207;-73
2023/07/17 14:26:05;;;;;;;3.28;1.77;;;;;;;;;;5016398;28;20230;-72
2023/07/17 14:28:33;;;;;;;2.22;1.60;;;;;;;;;;5024202;28;20231;-73
2023/07/17 14:31:02;;;;;;;3.40;1.80;;;;;;;;;;5023749;28;20208;-72
2023/07/17 14:33:30;;;;;;;2.80;1.50;;;;;;;;;;5027895;28;20219;-73
2023/07/17 14:35:57;;;;;;;1.48;1.38;;;;;;;;;;5027826;28;20197;-72
2023/07/17 14:38:25;;;;;;;3.53;1.52;;;;;;;;;;5017095;28;20204;-70
2023/07/17 14:40:52;;;;;;;3.40;1.70;;;;;;;;;;5023937;28;20216;-73
2023/07/17 14:43:19;;;;;;;1.50;1.40;;;;;;;;;;5020545;28;20205;-73
2023/07/17 14:45:46;;;;;;;2.55;1.70;;;;;;;;;;5027522;28;20236;-73